Flight Track Log - Related Links

Times and Time Zones

All times are in EDT time to prevent confusion due to time zone crossing. See the EGF3681 flight status page for this flight to view local times or setup timezone preferences in your user account.

Time Position Orientation Groundspeed Altitude Reporting Facility
EDT Latitude Longitude Course Direction KTS MPH feet Rate Location/Type
Fri 11:31:59 PM 42.0000 -87.9333 95° East 169 194 1,700  Level Chicago TRACON
Fri 11:32:47 PM 42.0167 -87.8833 66° East 212 244 3,200 1,895 Climbing Chicago TRACON
Fri 11:33:53 PM 42.0167 -87.7833 90° East 257 296 5,300 2,095 Climbing Chicago TRACON
Fri 11:34:00 PM 41.9660 -87.5267 98° East  Level FlightAware Approximate
Fri 11:34:53 PM 42.0167 -87.6833 90° East 280 322 7,600  Level Chicago TRACON
Fri 11:35:00 PM 41.9537 -87.4034 98° East  Level FlightAware Approximate
Fri 11:35:40 PM 42.0228 -87.5911 85° East 288 331 9,300  Level Chicago Center
Fri 11:36:00 PM 41.9439 -87.2797 95° East  Level FlightAware Approximate
Fri 11:36:41 PM 42.0072 -87.4819 101° East 296 341 11,300  Level Chicago Center
Fri 11:37:00 PM 41.9350 -87.1559 95° East  Level FlightAware Approximate
Fri 11:37:42 PM 41.9892 -87.3617 101° East 322 371 12,700  Level Chicago Center
Fri 11:38:42 PM 41.9697 -87.2314 101° East 353 406 13,800 1,091 Climbing Chicago Center
Fri 11:39:43 PM 41.9469 -87.0958 103° East 370 426 14,900 1,230 Climbing Chicago Center
Fri 11:40:44 PM 41.8861 -86.9789 125° Southeast 382 440 16,300 1,377 Climbing Chicago Center
Fri 11:41:45 PM 41.8231 -86.8622 126° Southeast 385 443 17,700 1,240 Climbing Chicago Center
Fri 11:42:45 PM 41.7617 -86.7450 125° Southeast 387 445 18,800 1,140 Climbing Chicago Center
Fri 11:43:46 PM 41.7017 -86.6300 125° Southeast 390 449 20,000 1,131 Climbing Chicago Center
Fri 11:44:47 PM 41.6378 -86.5094 125° Southeast 397 457 21,100 1,082 Climbing Chicago Center
Fri 11:45:48 PM 41.5722 -86.3858 125° Southeast 408 470 22,200 934 Climbing Chicago Center
Fri 11:46:49 PM 41.4922 -86.2331 125° Southeast 420 483 23,000 397 Climbing Chicago Center
Fri 11:47:49 PM 41.4200 -86.0983 126° Southeast 446 513 23,000  Level Chicago Center
Fri 11:48:50 PM 41.3444 -85.9575 126° Southeast 469 540 23,000  Level Chicago Center
Fri 11:49:51 PM 41.2686 -85.8172 126° Southeast 471 542 23,000  Level Chicago Center
Fri 11:50:51 PM 41.1953 -85.6797 125° Southeast 464 534 23,000  Level Chicago Center
Fri 11:51:52 PM 41.1219 -85.5450 126° Southeast 458 527 23,000  Level Chicago Center
Fri 11:52:53 PM 41.0492 -85.4094 125° Southeast 456 525 23,000  Level Chicago Center
Fri 11:53:53 PM 40.9728 -85.2683 126° Southeast 471 542 23,000 -50 Level Chicago Center
Fri 11:54:54 PM 40.8969 -85.1289 126° Southeast 475 547 22,900 -934 Descending Chicago Center
Fri 11:55:55 PM 40.8217 -84.9939 126° Southeast 464 534 21,100 -1,820 Descending Chicago Center
Fri 11:56:56 PM 40.7481 -84.8625 126° Southeast 454 522 19,200 -1,835 Descending Chicago Center
Fri 11:57:56 PM 40.6775 -84.7344 126° Southeast 440 506 17,400 -1,982 Descending Chicago Center
Fri 11:58:48 PM 40.6069 -84.6111 127° Southeast 420 483 15,500 -2,018 Descending Indianapolis Center
Fri 11:59:49 PM 40.5417 -84.4936 126° Southeast 402 463 13,600 -1,934 Descending Indianapolis Center
Sat 12:00:49 AM 40.4769 -84.3803 127° Southeast 392 451 11,600 -1,686 Descending Indianapolis Center
Sat 12:01:50 AM 40.4203 -84.2781 126° Southeast 353 406 10,200 -1,426 Descending Indianapolis Center
Sat 12:02:51 AM 40.3514 -84.2458 160° South 310 357 8,700 -1,636 Descending Indianapolis Center
Sat 12:03:51 AM 40.2792 -84.2883 204° Southwest 288 331 6,900 -1,339 Descending Indianapolis Center
Sat 12:04:52 AM 40.2092 -84.3272 203° Southwest 280 322 6,000 -645 Descending Indianapolis Center
Sat 12:05:52 AM 40.1397 -84.3669 204° Southwest 275 316 5,600 -942 Descending Indianapolis Center
Sat 12:06:53 AM 40.0717 -84.4044 203° Southwest 271 312 4,100 -787 Descending Indianapolis Center
Sat 12:07:54 AM 40.0053 -84.4414 203° Southwest 267 307 4,000 -50 Descending Indianapolis Center
Sat 12:08:54 AM 39.9442 -84.3975 151° Southeast 261 300 4,000 -545 Level Indianapolis Center
Sat 12:09:55 AM 39.8900 -84.3528 148° Southeast 240 276 2,900 -942 Descending Indianapolis Center
Sat 12:10:55 AM 39.8681 -84.2972 117° Southeast 187 215 2,100 -793 Descending Indianapolis Center
Sat 12:11:56 AM 39.8878 -84.2583 57° Northeast 144 166 1,300 -446 Descending Indianapolis Center
Sat 12:12:56 AM 39.9069 -84.2197 57° Northeast 141 162 1,200 -100 Descending Indianapolis Center

Login

Don't have an account? Register now (free) for customized features, flight alerts, and more!